Windham, New Hampshire
Current Conditions -  °F | °C
As of 4:54 PM on Friday 19 Dec 2014 (Local Time) from KLWM Reporting Station
Few Clouds Few Clouds  
Wind Chill: 22°   Ceiling: Unl
Heat Index: 30°   Visibility: 10mi
Dew Point: 21°   Wind: 9mph
Humidity: 69%   Direction: 290°WNW
Pressure: 30.04"   Gusts: NA
Location:  42.8°N, 71.3°W
Report Text: KLWM 192154Z 29008KT 10SM FEW027 M01/M06 A3004 RMK AO2 SLP174 T10111061
Loading
Personal Weather Stations






























Interactive Weather Map New forecast layout! Learn more

10-Day Weather Forecast

Advertisements
Track Severe Weather on mobile